createdAt,value
2023-01-17T00:00:01.822Z,6.63
2023-01-17T00:05:26.824Z,11.18
2023-01-17T00:10:29.919Z,7.93
2023-01-17T00:15:34.068Z,6.57
2023-01-17T00:20:54.633Z,6.53
2023-01-17T00:26:04.158Z,3.65
2023-01-17T00:31:10.197Z,5.18
2023-01-17T00:36:12.378Z,13.70
2023-01-17T00:41:14.994Z,13.02
2023-01-17T00:46:36.487Z,5.07
2023-01-17T00:51:57.176Z,16.10
2023-01-17T00:57:19.351Z,6.63
2023-01-17T01:02:41.909Z,6.25
2023-01-17T01:08:02.352Z,9.52
2023-01-17T01:13:22.668Z,8.20
2023-01-17T01:18:44.518Z,4.65
2023-01-17T01:24:04.749Z,10.77
2023-01-17T01:29:25.373Z,7.03
2023-01-17T01:34:29.832Z,9.38
2023-01-17T01:39:32.635Z,11.95
2023-01-17T01:44:48.141Z,4.22
2023-01-17T01:49:52.788Z,2.95
2023-01-17T01:54:59.420Z,3.13
2023-01-17T02:00:07.591Z,8.25
2023-01-17T02:05:19.053Z,3.45
2023-01-17T02:10:22.123Z,4.85
2023-01-17T02:15:32.727Z,4.75
2023-01-17T02:20:59.806Z,4.95
2023-01-17T02:26:42.132Z,8.63
2023-01-17T02:31:50.738Z,9.65
2023-01-17T02:37:01.318Z,6.38
2023-01-17T02:42:09.439Z,13.32
2023-01-17T02:47:24.002Z,10.07
2023-01-17T02:52:45.486Z,5.88
2023-01-17T02:58:01.922Z,5.20
2023-01-17T03:03:18.502Z,7.90
2023-01-17T03:08:22.171Z,3.40
2023-01-17T03:13:25.032Z,7.30
2023-01-17T03:18:29.139Z,5.15
2023-01-17T03:23:31.909Z,8.07
2023-01-17T03:28:35.016Z,4.43
2023-01-17T03:33:39.419Z,3.53
2023-01-17T03:38:42.229Z,13.50
2023-01-17T03:43:45.003Z,9.13
2023-01-17T03:48:49.123Z,9.57
2023-01-17T03:53:51.997Z,4.50
2023-01-17T03:58:54.895Z,5.65
2023-01-17T04:03:58.990Z,9.00
2023-01-17T04:09:01.816Z,5.20
2023-01-17T04:27:31.218Z,2.35
2023-01-17T04:32:34.388Z,7.88
2023-01-17T04:37:37.163Z,5.40
2023-01-17T04:42:41.512Z,4.00
2023-01-17T04:47:44.322Z,4.63
2023-01-17T04:52:47.134Z,4.85
2023-01-17T04:57:51.556Z,5.55
2023-01-17T05:02:55.680Z,4.30
2023-01-17T05:07:59.506Z,7.72
2023-01-17T05:13:03.927Z,3.30
2023-01-17T05:18:08.738Z,5.53
2023-01-17T05:23:11.990Z,9.32
2023-01-17T05:28:16.140Z,7.28
2023-01-17T05:33:19.405Z,4.10
2023-01-17T05:38:23.661Z,8.55
2023-01-17T05:43:28.401Z,7.35
2023-01-17T05:48:31.152Z,3.42
2023-01-17T05:53:33.844Z,7.25
2023-01-17T05:58:39.982Z,10.85
2023-01-17T06:03:43.901Z,6.10
2023-01-17T06:08:47.462Z,6.72
2023-01-17T06:13:52.492Z,8.05
2023-01-17T06:18:55.276Z,7.20
2023-01-17T06:23:58.059Z,7.72
2023-01-17T06:29:02.401Z,5.10
2023-01-17T06:34:05.609Z,3.67
2023-01-17T06:39:08.576Z,7.28
2023-01-17T06:44:14.092Z,14.13
2023-01-17T06:49:17.608Z,14.35
2023-01-17T06:54:20.317Z,4.38
2023-01-17T06:59:24.508Z,7.55
2023-01-17T07:04:27.327Z,7.22
2023-01-17T07:09:32.704Z,8.88
2023-01-17T07:14:36.892Z,6.13
2023-01-17T07:19:39.684Z,16.38
2023-01-17T07:24:42.513Z,43.30
2023-01-17T07:29:46.618Z,27.65
2023-01-17T07:34:50.939Z,27.80
2023-01-17T07:39:54.590Z,14.32
2023-01-17T07:45:00.648Z,16.02
2023-01-17T07:50:05.126Z,25.17
2023-01-17T07:55:12.382Z,26.73
2023-01-17T08:00:18.506Z,33.75
2023-01-17T08:05:26.741Z,8.35
2023-01-17T08:10:29.454Z,11.57
2023-01-17T08:15:33.535Z,13.07
2023-01-17T08:31:11.257Z,18.55
2023-01-17T08:36:14.195Z,21.52
2023-01-17T08:41:17.527Z,9.20
2023-01-17T08:46:22.791Z,11.43
2023-01-17T08:51:26.582Z,17.65
2023-01-17T08:56:30.259Z,10.63
2023-01-17T09:01:40.659Z,4.85
2023-01-17T09:06:48.243Z,9.27
2023-01-17T09:16:55.203Z,6.53
2023-01-17T09:21:58.009Z,6.68
2023-01-17T09:27:00.928Z,3.80
2023-01-17T09:32:05.619Z,4.40
2023-01-17T09:37:09.232Z,22.58
2023-01-17T09:42:22.610Z,4.47
2023-01-17T09:47:36.680Z,5.63
2023-01-17T09:52:44.679Z,13.05
2023-01-17T09:58:00.177Z,31.83
2023-01-17T10:03:43.696Z,4.85
2023-01-17T10:09:15.128Z,5.80
2023-01-17T10:14:40.801Z,6.60
2023-01-17T10:20:07.335Z,6.95
2023-01-17T10:25:26.319Z,10.38
2023-01-17T10:30:35.714Z,7.00
2023-01-17T10:35:50.661Z,2.83
2023-01-17T10:40:59.599Z,5.00
2023-01-17T10:46:05.962Z,3.35
2023-01-17T10:51:18.203Z,6.80
2023-01-17T10:56:28.353Z,2.63
2023-01-17T11:07:14.719Z,4.72
2023-01-17T11:12:25.749Z,7.57
2023-01-17T11:17:29.753Z,7.80
2023-01-17T11:22:34.515Z,7.70
2023-01-17T11:27:42.652Z,6.55
2023-01-17T11:32:56.722Z,5.25
2023-01-17T11:38:15.942Z,2.38
2023-01-17T11:43:22.711Z,5.00
2023-01-17T11:53:33.334Z,2.42
2023-01-17T11:58:39.282Z,3.67
2023-01-17T12:04:17.356Z,7.50
2023-01-17T12:09:29.913Z,4.60
2023-01-17T12:14:44.663Z,4.32
2023-01-17T12:20:01.133Z,3.40
2023-01-17T12:25:21.820Z,3.85
2023-01-17T12:30:44.628Z,2.58
2023-01-17T12:35:53.692Z,3.67
2023-01-17T12:41:05.698Z,4.07
2023-01-17T12:46:16.865Z,3.67
2023-01-17T12:51:27.700Z,5.68
2023-01-17T12:56:35.600Z,7.63
2023-01-17T13:01:43.070Z,24.67
2023-01-17T13:06:54.036Z,3.50
2023-01-17T13:12:03.004Z,34.30
2023-01-17T13:17:20.185Z,10.82
2023-01-17T13:22:27.044Z,6.07
2023-01-17T13:27:40.354Z,17.40
2023-01-17T13:33:07.734Z,16.00
2023-01-17T13:38:22.658Z,14.80
2023-01-17T13:43:31.790Z,21.23
2023-01-17T13:48:37.681Z,27.95
2023-01-17T13:53:49.274Z,30.88
2023-01-17T13:59:12.765Z,24.23
2023-01-17T14:04:15.549Z,18.65
2023-01-17T14:09:23.816Z,34.60
2023-01-17T14:14:48.765Z,20.35
2023-01-17T14:19:53.428Z,9.65
2023-01-17T14:25:01.862Z,13.05
2023-01-17T14:30:17.794Z,11.05
2023-01-17T14:35:23.526Z,6.65
2023-01-17T14:40:30.683Z,6.63
2023-01-17T14:45:37.247Z,12.48
2023-01-17T14:50:42.651Z,8.57
2023-01-17T14:55:56.591Z,5.78
2023-01-17T15:01:03.246Z,10.38
2023-01-17T15:06:13.057Z,5.78
2023-01-17T15:11:23.630Z,6.25
2023-01-17T15:16:33.316Z,16.30
2023-01-17T15:21:40.596Z,29.65
2023-01-17T15:26:44.860Z,18.05
2023-01-17T15:31:51.470Z,28.80
2023-01-17T15:36:57.669Z,22.27
2023-01-17T15:42:03.106Z,29.23
2023-01-17T15:47:25.808Z,19.45
2023-01-17T15:52:29.175Z,19.02
2023-01-17T15:57:36.937Z,53.28
2023-01-17T16:02:44.202Z,25.27
2023-01-17T16:12:52.954Z,28.23
2023-01-17T16:18:02.483Z,21.83
2023-01-17T16:23:06.691Z,17.75
2023-01-17T16:28:09.487Z,16.65
2023-01-17T16:33:13.858Z,14.07
2023-01-17T16:38:17.927Z,24.75
2023-01-17T16:43:21.446Z,27.23
2023-01-17T16:48:25.559Z,21.00
2023-01-17T16:53:29.709Z,14.35
2023-01-17T16:58:32.495Z,43.08
2023-01-17T17:03:36.617Z,24.13
2023-01-17T17:08:39.719Z,32.45
2023-01-17T17:13:44.011Z,22.00
2023-01-17T17:18:55.549Z,32.70
2023-01-17T17:23:59.496Z,23.73
2023-01-17T17:29:02.912Z,29.42
2023-01-17T17:34:08.647Z,30.50
2023-01-17T17:39:14.688Z,22.02
2023-01-17T17:44:17.699Z,20.57
2023-01-17T17:49:22.968Z,25.13
2023-01-17T17:54:27.381Z,36.15
2023-01-17T17:59:31.132Z,22.98
2023-01-17T18:04:35.407Z,24.95
2023-01-17T18:09:39.315Z,21.40
2023-01-17T18:14:47.267Z,26.17
2023-01-17T18:19:52.633Z,40.60
2023-01-17T18:24:55.491Z,64.25
2023-01-17T18:29:58.609Z,37.50
2023-01-17T18:35:03.081Z,49.05
2023-01-17T18:40:08.012Z,33.63
2023-01-17T18:45:11.490Z,28.95
2023-01-17T18:50:18.269Z,41.33
2023-01-17T18:55:21.931Z,34.75
2023-01-17T19:00:24.649Z,28.63
2023-01-17T19:05:29.116Z,24.90
2023-01-17T19:10:32.690Z,25.33
2023-01-17T19:15:36.239Z,35.90
2023-01-17T19:20:40.437Z,45.97
2023-01-17T19:25:43.192Z,127.90
2023-01-17T19:30:48.147Z,22.63
2023-01-17T19:35:52.424Z,26.30
2023-01-17T19:40:55.191Z,24.27
2023-01-17T19:45:59.534Z,27.52
2023-01-17T19:51:08.850Z,72.45
2023-01-17T19:56:14.670Z,97.75
2023-01-17T20:01:19.446Z,86.60
2023-01-17T20:06:30.837Z,77.20
2023-01-17T20:11:33.898Z,85.68
2023-01-17T20:16:37.617Z,72.28
2023-01-17T20:21:41.916Z,41.08
2023-01-17T20:26:44.619Z,54.47
2023-01-17T20:31:52.353Z,40.70
2023-01-17T20:36:58.081Z,23.08
2023-01-17T20:42:01.543Z,33.78
2023-01-17T20:47:04.503Z,38.60
2023-01-17T20:52:08.622Z,38.70
2023-01-17T20:57:11.365Z,37.15
2023-01-17T21:02:14.217Z,25.70
2023-01-17T21:07:18.778Z,34.45
2023-01-17T21:12:22.481Z,32.13
2023-01-17T21:17:25.746Z,28.95
2023-01-17T21:22:29.857Z,60.75
2023-01-17T21:27:32.642Z,34.38
2023-01-17T21:32:36.027Z,27.05
2023-01-17T21:37:41.034Z,24.70
2023-01-17T21:42:43.902Z,27.55
2023-01-17T21:47:47.899Z,18.48
2023-01-17T21:52:52.076Z,19.83
2023-01-17T21:58:12.332Z,24.83
2023-01-17T22:03:15.362Z,26.15
2023-01-17T22:08:19.422Z,28.15
2023-01-17T22:13:22.188Z,26.25
2023-01-17T22:18:25.009Z,25.77
2023-01-17T22:23:29.164Z,25.55
2023-01-17T22:28:32.681Z,33.30
2023-01-17T22:33:35.456Z,21.65
2023-01-17T22:38:39.705Z,18.70
2023-01-17T22:43:44.609Z,18.58
2023-01-17T22:48:47.555Z,20.90
2023-01-17T22:53:52.904Z,19.23
2023-01-17T22:58:55.887Z,18.60
2023-01-17T23:04:00.380Z,16.92
2023-01-17T23:09:06.833Z,18.98
2023-01-17T23:14:12.527Z,21.70
2023-01-17T23:19:24.103Z,14.73
2023-01-17T23:24:29.201Z,15.40
2023-01-17T23:29:32.804Z,16.42
2023-01-17T23:34:35.544Z,14.50
2023-01-17T23:39:39.888Z,13.63
2023-01-17T23:44:42.622Z,16.77
2023-01-17T23:49:48.156Z,15.20
2023-01-17T23:54:52.292Z,9.85
2023-01-17T23:59:55.010Z,9.23
